Airfield :
LOGIN :

Register | Disclaimer

   EN    FR    IT 

 










Legend :    VFR   Marginal VFR   IFR   Intensive IFR   Very Intensive IFR
Visi :
Ceiling :
>= 8 km
>= 3000ft
5 to 8 km
1000 to 3000 ft
1500m to 5 km
500 to 1000 ft
800 to 1500m
200 to 500 ft
< 800m
< 200 ft
Symbols :   Thunderstorms  Fog  Heavy snow  Heavy precipitations  Wind > 20 kt
SIGMETs :     Misc.  Thunderstorms  Icing  Turbulence  Mountain Waves  Volcanic Ashes






- Airport Elevation : 726 ft
- IATA code : DIJ


LFSD - Dijon

CURRENT METAR :
  • 300230Z AUTO 30003KT 9999 FEW010 BKN041 OVC220 11/11 Q1018

EXPIRED METARs :
  • 300200Z AUTO 32003KT CAVOK 11/11 Q1018
  • 300130Z AUTO 31002KT 3900 1700 BR FEW001 SCT007 OVC210 10/10 Q1018
  • 300100Z AUTO 00000KT 4000 1200 R35/P2000 BR OVC006 11/11 Q1018
  • 300030Z AUTO 00000KT 9999 FEW007 BKN170 BKN200 11/11 Q1018
  • 300000Z AUTO 23001KT 5000 BR NSC 12/12 Q1018

Expired Forecast.



MET'MAP, your aeronautical weather chart ! - Copyright ORBIFLY December 2007 - Disclaimer

ORBIFLY MET'MAP TEAM :

Programming & Development : Alexandra Zaïnal
Concept & original design : Baudouin d'Aumeries
Assistance for programming : Marc-Olivier Méhu
Technical & hardware support : Manuel Goepfert

Contact : metmap@orbifly.com




SOURCES & CREDITS :

   NOAA